George, WA (98824)

1:59 PM PDT on June 25, 2017 (GMT -0700)
Low Gap | | Change Station
Active Advisory: Fire Weather Warning

Elev 1240 ft 47.00 °N, 119.82 °W | Updated 13 seconds ago

Clear
Clear
92.1 °F
Feels Like 88 °F
N
1.1
Wind Variable Wind from WSW
Gusts 2.5 mph

Today
High -- | Low -- °F
--% Chance of Precip.
Yesterday
High -- | Low -- °F
Precip. -- in
Pressure 29.94 in
Visibility 10.0 miles
Clouds Clear
Heat Index 88 °F
Dew Point 32 °F
Humidity 12%
Rainfall 0.00 in
Snow Depth Not available.
5:05 AM 8:58 PM
Waxing Crescent, 5% visible
METAR KEPH 252053Z AUTO 06004KT 10SM CLR 35/03 A2997 RMK AO2 SLP136 T03500033 58021 $
Pressure 29.94 in
Visibility 10.0 miles
Clouds Clear
Heat Index 88 °F
Dew Point 32 °F
Humidity 12%
Rainfall 0.00 in
Snow Depth Not available.
5:05 AM 8:58 PM
Waxing Crescent, 5% visible
METAR KEPH 252053Z AUTO 06004KT 10SM CLR 35/03 A2997 RMK AO2 SLP136 T03500033 58021 $

Get Your Daily Forecast Email!

Thanks for signing up!

Be on the lookout for a verification email in your inbox.

You'll start receiving severe weather alerts in your inbox..

×

10-Day Weather Forecast

Almanac

Astronomy

Jun. 25, 2017 Rise Set
Actual Time
Civil Twilight
Nautical Twilight
Astronomical Twilight
Moon
Length of Visible Light
Length of Day
Tomorrow will be .
, % of the Moon is Illuminated

Today's Extremes

State Highs State Lows

Community

WunderPhotos

Category 6

Welcome to Category 6. This is the collective home for Weather Underground's featured writeups by Dr. Jeff Masters (right), Bob Henson (left), Chris Burt, and other regular contributors.

Nearby

Air Quality

  Air Quality AQ Index Pollutant
Not available.

Snow Depth

Station Depth Elevation

Earthquake Activity

City Distance Mag. Time & Date
Minimum magnitude displayed is 2.5.

Coastal Water Temperatures

Place Temperature

Stations

Nearby Weather Stations

Station Location Temp. Windchill Dew Point Humidity Wind Precip. Elev Updated Type
                   

Watches & Warnings

Fire Weather Warning
Issued: 9:07 AM PDT Jun. 25, 2017 – National Weather Service

... Red flag warning remains in effect until 11 PM PDT this
evening for very hot and dry conditions for fire weather zones
641, 641, and 675...

* affected area... in Oregon... fire weather zone 641. In
Washington... fire weather zones 641 and 675.

* Timing... this afternoon and evening.

* Haines... level 6.

* Humidity... minimum values of 8 to 14 percent.

* Impacts... any fires that develop will likely spread rapidly.
Outdoor burning is not recommended.

Precautionary/preparedness actions...

A red flag warning means that critical fire weather conditions
are either occurring now... .or will shortly. A combination of
strong winds... low relative humidity... and warm temperatures can
contribute to extreme fire behavior.